Time;durP1;ratioP1;P1;durP2;ratioP2;P2;SDS_P1;SDS_P2;PMS_P1;PMS_P2;Temp;Humidity;BMP_temperature;BMP_pressure;BME280_temperature;BME280_humidity;BME280_pressure;Samples;Min_cycle;Max_cycle;Signal;HPM_P1;HPM_P2
2023/03/18 00:01:36;;;;;;;13.23;7.85;;;11.50;99.90;;;;;;5077925;27;20090;-76
2023/03/18 00:04:03;;;;;;;21.30;7.93;;;11.60;99.90;;;;;;5109950;27;20051;-76
2023/03/18 00:06:29;;;;;;;14.00;8.10;;;11.50;99.90;;;;;;5129005;27;20077;-76
2023/03/18 00:08:54;;;;;;;13.45;7.50;;;11.50;99.90;;;;;;5111193;27;20050;-76
2023/03/18 00:11:20;;;;;;;15.43;8.30;;;11.50;99.90;;;;;;5109674;27;20039;-76
2023/03/18 00:13:47;;;;;;;13.70;7.18;;;11.50;99.90;;;;;;5093906;27;20039;-77
2023/03/18 00:16:14;;;;;;;13.70;7.13;;;11.60;99.90;;;;;;5108706;27;20100;-76
2023/03/18 00:18:41;;;;;;;15.80;7.93;;;11.60;99.90;;;;;;5129902;27;20043;-76
2023/03/18 00:21:07;;;;;;;19.63;8.13;;;11.60;99.90;;;;;;5110254;27;20390;-77
2023/03/18 00:23:33;;;;;;;12.05;7.45;;;11.60;99.90;;;;;;5110249;27;20431;-76
2023/03/18 00:26:00;;;;;;;14.98;7.53;;;11.60;99.90;;;;;;5109714;27;20417;-77
2023/03/18 00:28:27;;;;;;;14.48;7.20;;;11.60;99.90;;;;;;5108819;27;20525;-76
2023/03/18 00:30:54;;;;;;;12.25;7.18;;;11.60;99.90;;;;;;5093732;27;20047;-76
2023/03/18 00:33:20;;;;;;;15.00;7.20;;;11.60;99.90;;;;;;5127102;27;20107;-76
2023/03/18 00:35:46;;;;;;;13.70;7.88;;;11.60;99.90;;;;;;5094076;27;20043;-76
2023/03/18 00:38:19;;;;;;;15.05;7.65;;;11.60;99.90;;;;;;5092238;27;20134;-76
2023/03/18 00:40:52;;;;;;;;;;;11.60;99.90;;;;;;5109895;27;20104;-75
2023/03/18 00:43:28;;;;;;;16.17;7.40;;;11.60;99.90;;;;;;5110805;27;19919;-76
2023/03/18 00:45:55;;;;;;;13.32;6.70;;;11.50;99.90;;;;;;5108746;27;20084;-77
2023/03/18 00:48:22;;;;;;;14.50;7.45;;;11.60;99.90;;;;;;5110379;27;20506;-77
2023/03/18 00:50:48;;;;;;;12.27;7.65;;;11.60;99.90;;;;;;5108281;27;20047;-77
2023/03/18 00:53:15;;;;;;;12.68;7.50;;;11.50;99.90;;;;;;5092836;27;20066;-77
2023/03/18 00:55:41;;;;;;;11.95;7.53;;;11.50;99.90;;;;;;5110068;27;20039;-77
2023/03/18 00:58:08;;;;;;;12.85;7.88;;;11.50;99.90;;;;;;5108556;27;20508;-77
2023/03/18 01:00:38;;;;;;;14.57;7.07;;;11.40;99.90;;;;;;5110209;27;20047;-77
2023/03/18 01:03:05;;;;;;;14.23;7.82;;;11.40;99.90;;;;;;5107881;27;20205;-77
2023/03/18 01:05:32;;;;;;;14.13;7.80;;;11.50;99.90;;;;;;5092901;27;20043;-77
2023/03/18 01:07:58;;;;;;;13.65;7.80;;;11.40;99.90;;;;;;5108289;27;20043;-77
2023/03/18 01:10:26;;;;;;;13.20;7.28;;;11.30;99.90;;;;;;5075609;27;20047;-77
2023/03/18 01:12:52;;;;;;;13.13;8.25;;;11.30;99.90;;;;;;5109517;27;20046;-77
2023/03/18 01:15:20;;;;;;;14.75;8.73;;;11.30;99.90;;;;;;5107889;27;20054;-77
2023/03/18 01:17:47;;;;;;;13.88;8.52;;;11.30;99.90;;;;;;5092774;27;20047;-76
2023/03/18 01:20:16;;;;;;;14.73;9.10;;;11.30;99.90;;;;;;5126333;27;20449;-76
2023/03/18 01:22:43;;;;;;;15.48;8.15;;;11.20;99.90;;;;;;5128140;27;20051;-76
2023/03/18 01:25:12;;;;;;;13.82;8.45;;;11.30;99.90;;;;;;5108273;27;20074;-77
2023/03/18 01:27:38;;;;;;;13.32;8.55;;;11.20;99.90;;;;;;5108898;27;20119;-77
2023/03/18 01:30:05;;;;;;;15.40;8.70;;;11.20;99.90;;;;;;5128029;27;20043;-77
2023/03/18 01:32:31;;;;;;;19.58;9.43;;;11.20;99.90;;;;;;5126108;27;20107;-77
2023/03/18 01:34:58;;;;;;;16.52;9.50;;;11.20;99.90;;;;;;5109409;27;20540;-77
2023/03/18 01:37:24;;;;;;;16.92;10.40;;;11.10;99.90;;;;;;5089986;27;20199;-77
2023/03/18 01:39:50;;;;;;;21.65;10.77;;;11.00;99.90;;;;;;5092373;27;20121;-77
2023/03/18 01:42:17;;;;;;;20.63;11.43;;;11.10;99.90;;;;;;5107582;27;20044;-77
2023/03/18 01:44:45;;;;;;;25.08;12.27;;;11.00;99.90;;;;;;5108914;27;20455;-77
2023/03/18 01:47:11;;;;;;;18.50;11.30;;;10.90;99.90;;;;;;5109554;27;20440;-76
2023/03/18 01:49:48;;;;;;;22.98;11.80;;;10.80;99.90;;;;;;5107408;27;20047;-77
2023/03/18 01:52:21;;;;;;;22.27;12.30;;;10.80;99.90;;;;;;5110885;27;20566;-77
2023/03/18 01:55:10;;;;;;;28.30;13.60;;;10.70;99.90;;;;;;5107597;27;20047;-77
2023/03/18 01:57:36;;;;;;;19.80;12.68;;;10.70;99.90;;;;;;5108792;27;20126;-77
2023/03/18 02:00:04;;;;;;;24.80;14.55;;;10.70;99.90;;;;;;5109505;27;20130;-76
2023/03/18 02:02:31;;;;;;;22.55;14.23;;;10.60;99.90;;;;;;5107313;27;20059;-77
2023/03/18 02:05:02;;;;;;;22.75;14.07;;;10.70;99.90;;;;;;5091933;27;20520;-77
2023/03/18 02:07:32;;;;;;;28.20;15.20;;;10.70;99.90;;;;;;5106560;27;20123;-77
2023/03/18 02:10:01;;;;;;;25.17;15.60;;;10.60;99.90;;;;;;5092162;27;20051;-77
2023/03/18 02:12:32;;;;;;;21.83;14.95;;;10.60;99.90;;;;;;5107520;27;20045;-77
2023/03/18 02:15:00;;;;;;;24.38;15.50;;;10.60;99.90;;;;;;5090257;27;20092;-77
2023/03/18 02:17:30;;;;;;;28.10;16.05;;;10.60;99.90;;;;;;5108693;27;20054;-77
2023/03/18 02:20:10;;;;;;;23.35;16.10;;;10.60;99.90;;;;;;5089536;27;20104;-77
2023/03/18 02:22:40;;;;;;;25.45;16.27;;;10.60;99.90;;;;;;5108569;27;20049;-77
2023/03/18 02:25:24;;;;;;;26.50;18.13;;;10.50;99.90;;;;;;5106775;27;20051;-77
2023/03/18 02:28:08;;;;;;;23.38;17.00;;;10.60;99.90;;;;;;5107820;27;20460;-77
2023/03/18 02:30:41;;;;;;;25.85;16.65;;;10.30;99.90;;;;;;5109094;27;20081;-77
2023/03/18 02:33:09;;;;;;;29.23;19.63;;;10.60;99.90;;;;;;5105932;27;20054;-77
2023/03/18 02:35:35;;;;;;;25.90;17.75;;;10.50;99.90;;;;;;5091734;27;20343;-77
2023/03/18 02:38:03;;;;;;;24.92;17.38;;;10.50;99.90;;;;;;5106836;27;20094;-77
2023/03/18 02:40:35;;;;;;;40.33;18.23;;;10.50;99.90;;;;;;5107858;27;20302;-77
2023/03/18 02:43:24;;;;;;;28.13;18.15;;;10.50;99.90;;;;;;5126625;27;20072;-77
2023/03/18 02:45:56;;;;;;;26.00;17.77;;;10.50;99.90;;;;;;5106444;27;20681;-77
2023/03/18 02:48:26;;;;;;;25.67;18.30;;;10.40;99.90;;;;;;5107942;27;20074;-77
2023/03/18 02:50:53;;;;;;;28.42;18.13;;;10.40;99.90;;;;;;5106620;28;20039;-77
2023/03/18 02:53:19;;;;;;;27.27;18.13;;;10.40;99.90;;;;;;5090821;27;20043;-77
2023/03/18 02:55:45;;;;;;;30.38;18.83;;;10.50;99.90;;;;;;5126694;27;20501;-77
2023/03/18 02:58:11;;;;;;;28.50;17.95;;;10.30;99.90;;;;;;5106212;27;20092;-77
2023/03/18 03:00:37;;;;;;;37.20;20.08;;;10.30;99.90;;;;;;5108261;28;20051;-77
2023/03/18 03:03:04;;;;;;;32.47;19.92;;;10.20;99.90;;;;;;5124032;27;20548;-77
2023/03/18 03:05:32;;;;;;;30.88;19.77;;;10.20;99.90;;;;;;5108004;28;20043;-77
2023/03/18 03:07:58;;;;;;;31.38;20.42;;;10.20;99.90;;;;;;5125516;28;20220;-77
2023/03/18 03:10:24;;;;;;;28.08;18.92;;;10.10;99.90;;;;;;5107077;28;20164;-76
2023/03/18 03:12:50;;;;;;;38.60;21.08;;;10.00;99.90;;;;;;5107905;28;20131;-77
2023/03/18 03:15:16;;;;;;;26.52;19.13;;;10.10;99.90;;;;;;5102688;28;20044;-77
2023/03/18 03:17:42;;;;;;;33.15;19.98;;;10.00;99.90;;;;;;5104722;28;20122;-77
2023/03/18 03:20:09;;;;;;;33.65;21.33;;;9.90;99.90;;;;;;5085456;28;20039;-77
2023/03/18 03:22:36;;;;;;;33.85;21.45;;;9.90;99.90;;;;;;5104495;28;20676;-77
2023/03/18 03:25:02;;;;;;;31.38;20.77;;;9.80;99.90;;;;;;5103998;28;20087;-77
2023/03/18 03:27:28;;;;;;;28.58;20.98;;;9.90;99.90;;;;;;5103758;28;20047;-77
2023/03/18 03:29:54;;;;;;;32.88;22.83;;;9.90;99.90;;;;;;5104136;28;20080;-77
2023/03/18 03:32:21;;;;;;;39.45;23.48;;;9.80;99.90;;;;;;5085828;28;20111;-77
2023/03/18 03:34:48;;;;;;;33.40;21.15;;;9.80;99.90;;;;;;5104509;28;20047;-77
2023/03/18 03:37:14;;;;;;;35.03;24.63;;;9.80;99.90;;;;;;5102472;28;20120;-76
2023/03/18 03:39:39;;;;;;;33.08;23.77;;;9.70;99.90;;;;;;5105715;28;20487;-77
2023/03/18 03:42:05;;;;;;;34.25;24.13;;;9.70;99.90;;;;;;5085946;28;20047;-77
2023/03/18 03:44:31;;;;;;;38.67;24.35;;;9.70;99.90;;;;;;5103783;28;20052;-76
2023/03/18 03:46:57;;;;;;;33.00;23.63;;;9.70;99.90;;;;;;5104284;28;20055;-75
2023/03/18 03:49:23;;;;;;;35.55;24.02;;;9.70;99.90;;;;;;5104162;28;20483;-76
2023/03/18 03:51:49;;;;;;;39.15;25.17;;;9.60;99.90;;;;;;5105719;28;20071;-76
2023/03/18 03:54:15;;;;;;;34.50;23.20;;;9.60;99.90;;;;;;5102233;28;20126;-76
2023/03/18 03:56:41;;;;;;;36.90;23.50;;;10.40;99.90;;;;;;5104537;28;20130;-76
2023/03/18 03:59:09;;;;;;;38.60;24.30;;;9.60;99.90;;;;;;5085555;28;20047;-76
2023/03/18 04:01:35;;;;;;;36.15;23.25;;;9.60;99.90;;;;;;5105949;28;20112;-76
2023/03/18 04:04:01;;;;;;;37.58;23.10;;;9.60;99.90;;;;;;5092492;28;20036;-76
2023/03/18 04:06:28;;;;;;;35.33;24.25;;;9.60;99.90;;;;;;5109031;28;20050;-76
2023/03/18 04:08:54;;;;;;;34.90;24.35;;;9.60;99.90;;;;;;5110044;28;20051;-76
2023/03/18 04:11:20;;;;;;;33.85;23.60;;;9.60;99.90;;;;;;5088918;28;20047;-76
2023/03/18 04:13:46;;;;;;;34.72;25.50;;;9.60;99.90;;;;;;5091254;28;20044;-76
2023/03/18 04:16:13;;;;;;;38.22;25.25;;;9.60;99.90;;;;;;5088789;28;20421;-75
2023/03/18 04:18:39;;;;;;;31.10;22.20;;;9.60;99.90;;;;;;5107324;28;20048;-76
2023/03/18 04:21:07;;;;;;;32.38;23.80;;;9.60;99.90;;;;;;5107108;28;20047;-75
2023/03/18 04:23:33;;;;;;;41.28;24.35;;;9.60;99.90;;;;;;5088828;28;20047;-76
2023/03/18 04:25:59;;;;;;;35.83;24.40;;;10.00;99.90;;;;;;5090592;28;20100;-76
2023/03/18 04:28:25;;;;;;;43.85;25.10;;;9.50;99.90;;;;;;5105522;28;20055;-76
2023/03/18 04:30:51;;;;;;;35.80;23.20;;;9.60;99.90;;;;;;5108854;28;20054;-76
2023/03/18 04:33:18;;;;;;;37.85;22.98;;;9.50;99.90;;;;;;5088129;28;20040;-76
2023/03/18 04:35:44;;;;;;;42.83;23.85;;;9.50;99.90;;;;;;5108348;28;20176;-76
2023/03/18 04:38:10;;;;;;;36.35;23.80;;;9.50;99.90;;;;;;5106808;28;20035;-76
2023/03/18 04:40:36;;;;;;;36.72;25.25;;;9.60;99.90;;;;;;5106292;28;20407;-76
2023/03/18 04:43:02;;;;;;;35.28;23.60;;;9.50;99.90;;;;;;5107616;28;20047;-76
2023/03/18 04:45:28;;;;;;;30.58;22.50;;;9.60;99.90;;;;;;5104730;28;20495;-76
2023/03/18 04:47:54;;;;;;;35.30;22.45;;;9.50;99.90;;;;;;5090061;28;20040;-76
2023/03/18 04:50:20;;;;;;;35.83;23.50;;;9.50;99.90;;;;;;5104785;28;20047;-76
2023/03/18 04:52:46;;;;;;;35.30;22.67;;;9.50;99.90;;;;;;5089629;28;20109;-76
2023/03/18 04:55:19;;;;;;;34.03;21.63;;;9.50;99.90;;;;;;5107754;28;20040;-76
2023/03/18 04:57:45;;;;;;;32.63;22.55;;;9.40;99.90;;;;;;5107008;28;20079;-76
2023/03/18 05:00:13;;;;;;;35.13;22.00;;;9.60;99.90;;;;;;5108429;28;20105;-76
2023/03/18 05:02:39;;;;;;;35.58;23.00;;;9.40;99.90;;;;;;5104552;28;20526;-76
2023/03/18 05:05:06;;;;;;;32.38;22.30;;;9.40;99.90;;;;;;5089657;28;20569;-76
2023/03/18 05:07:32;;;;;;;31.75;19.40;;;9.40;99.90;;;;;;5106044;28;20089;-76
2023/03/18 05:09:58;;;;;;;30.27;20.52;;;9.40;99.90;;;;;;5089215;28;20043;-77
2023/03/18 05:12:24;;;;;;;31.88;21.35;;;9.70;99.90;;;;;;5088504;28;20047;-77
2023/03/18 05:14:50;;;;;;;33.13;20.17;;;9.40;99.90;;;;;;5087832;28;20092;-76
2023/03/18 05:17:17;;;;;;;31.35;22.15;;;9.40;99.90;;;;;;5106509;28;20039;-76
2023/03/18 05:19:45;;;;;;;29.75;19.48;;;9.50;99.90;;;;;;5104107;28;20092;-77
2023/03/18 05:22:12;;;;;;;35.63;20.92;;;9.30;99.90;;;;;;5106313;28;20107;-76
2023/03/18 05:24:39;;;;;;;34.50;21.65;;;9.30;99.90;;;;;;5104213;28;20055;-77
2023/03/18 05:27:05;;;;;;;30.75;20.25;;;9.40;99.90;;;;;;5105722;28;20054;-76
2023/03/18 05:29:31;;;;;;;32.58;21.33;;;9.50;99.90;;;;;;5105514;28;20051;-76
2023/03/18 05:31:58;;;;;;;33.45;20.27;;;9.30;99.90;;;;;;5070886;28;20100;-77
2023/03/18 05:34:24;;;;;;;28.30;19.02;;;9.40;99.90;;;;;;5089270;28;20040;-76
2023/03/18 05:36:50;;;;;;;33.85;20.83;;;9.40;99.90;;;;;;5103746;28;20047;-76
2023/03/18 05:39:16;;;;;;;25.33;18.38;;;9.60;99.90;;;;;;5107636;28;20043;-76
2023/03/18 05:41:41;;;;;;;32.70;22.08;;;9.60;99.90;;;;;;5105577;28;20577;-76
2023/03/18 05:44:07;;;;;;;33.22;20.90;;;9.50;99.90;;;;;;5105620;28;20048;-77
2023/03/18 05:46:33;;;;;;;30.30;19.10;;;9.50;99.90;;;;;;5088325;28;20050;-76
2023/03/18 05:48:58;;;;;;;32.95;21.05;;;9.70;99.90;;;;;;5104701;28;20588;-76
2023/03/18 05:51:25;;;;;;;30.90;20.45;;;9.50;99.90;;;;;;5107232;28;20055;-76
2023/03/18 05:53:51;;;;;;;33.25;20.75;;;9.60;99.90;;;;;;5103588;28;20114;-77
2023/03/18 05:56:17;;;;;;;30.48;20.13;;;9.50;99.90;;;;;;5105758;28;20139;-76
2023/03/18 05:58:43;;;;;;;34.65;20.23;;;9.50;99.90;;;;;;5103799;28;20039;-76
2023/03/18 06:01:10;;;;;;;35.78;20.65;;;9.60;99.90;;;;;;5105290;28;20085;-77
2023/03/18 06:03:36;;;;;;;33.63;20.52;;;9.60;99.90;;;;;;5104217;28;20052;-77
2023/03/18 06:06:02;;;;;;;35.72;22.35;;;9.60;99.90;;;;;;5104414;28;20561;-77
2023/03/18 06:08:28;;;;;;;30.70;19.83;;;9.60;99.90;;;;;;5088293;28;20057;-77
2023/03/18 06:10:54;;;;;;;42.17;21.70;;;9.60;99.90;;;;;;5103404;28;20071;-77
2023/03/18 06:13:20;;;;;;;38.88;21.05;;;9.80;99.90;;;;;;5088351;28;20044;-76
2023/03/18 06:15:46;;;;;;;37.97;21.48;;;9.60;99.90;;;;;;5103117;28;20407;-76
2023/03/18 06:18:12;;;;;;;40.42;22.58;;;9.60;99.90;;;;;;5105114;28;20119;-77
2023/03/18 06:20:38;;;;;;;41.10;21.55;;;9.60;99.90;;;;;;5105938;28;20043;-76
2023/03/18 06:23:04;;;;;;;41.28;22.48;;;9.70;99.90;;;;;;5105562;28;20509;-77
2023/03/18 06:25:30;;;;;;;36.10;21.10;;;9.80;99.90;;;;;;5105932;28;20479;-76
2023/03/18 06:27:56;;;;;;;36.80;21.77;;;9.70;99.90;;;;;;5104872;28;20430;-75
2023/03/18 06:30:22;;;;;;;37.72;23.45;;;9.70;99.90;;;;;;5088090;28;20035;-76
2023/03/18 06:32:48;;;;;;;46.28;24.25;;;9.70;99.90;;;;;;5086002;28;20073;-75
2023/03/18 06:35:14;;;;;;;38.17;22.77;;;9.80;99.90;;;;;;5104915;28;20562;-76
2023/03/18 06:37:40;;;;;;;44.47;25.98;;;9.70;99.90;;;;;;5086608;28;20487;-76
2023/03/18 06:40:08;;;;;;;43.83;23.67;;;9.80;99.90;;;;;;5105432;28;20139;-76
2023/03/18 06:42:33;;;;;;;43.10;24.25;;;9.80;99.90;;;;;;5104485;28;20122;-76
2023/03/18 06:45:00;;;;;;;45.47;23.50;;;9.90;99.90;;;;;;5103153;28;20135;-76
2023/03/18 06:47:26;;;;;;;40.80;24.58;;;9.90;99.90;;;;;;5088429;28;20086;-76
2023/03/18 06:49:52;;;;;;;42.50;24.63;;;9.90;99.90;;;;;;5085947;28;20051;-77
2023/03/18 06:52:18;;;;;;;45.38;24.35;;;9.90;99.90;;;;;;5106528;28;20040;-76
2023/03/18 06:54:44;;;;;;;42.90;24.23;;;10.00;99.90;;;;;;5104673;28;20551;-77
2023/03/18 06:57:10;;;;;;;40.90;23.85;;;9.90;99.90;;;;;;5104669;28;20048;-76
2023/03/18 06:59:38;;;;;;;45.33;24.25;;;10.00;99.90;;;;;;5087339;28;20123;-76
2023/03/18 07:02:04;;;;;;;40.30;22.55;;;10.10;99.90;;;;;;5085917;28;20043;-76
2023/03/18 07:04:32;;;;;;;40.40;24.33;;;10.10;99.90;;;;;;5104934;28;20043;-76
2023/03/18 07:06:59;;;;;;;42.63;24.33;;;10.10;99.90;;;;;;5068725;28;20044;-76
2023/03/18 07:09:25;;;;;;;48.17;26.10;;;10.20;99.90;;;;;;5088097;28;20259;-77
2023/03/18 07:11:52;;;;;;;40.10;24.35;;;10.20;99.90;;;;;;5103067;28;20047;-77
2023/03/18 07:14:18;;;;;;;37.70;23.50;;;10.30;99.90;;;;;;5105486;27;20052;-77
2023/03/18 07:16:44;;;;;;;39.15;23.10;;;10.70;99.90;;;;;;5108232;28;20059;-77
2023/03/18 07:19:11;;;;;;;33.42;21.95;;;10.40;99.90;;;;;;5124631;28;20494;-76
2023/03/18 07:21:38;;;;;;;39.72;22.17;;;10.40;99.90;;;;;;5107888;28;20583;-77
2023/03/18 07:24:04;;;;;;;37.60;22.13;;;10.60;99.90;;;;;;5105307;28;20082;-76
2023/03/18 07:26:30;;;;;;;37.88;22.98;;;10.60;99.90;;;;;;5090926;28;20059;-77
2023/03/18 07:28:56;;;;;;;36.05;21.23;;;10.70;99.90;;;;;;5089210;28;20067;-76
2023/03/18 07:31:22;;;;;;;34.55;20.80;;;10.80;99.90;;;;;;5073705;28;20078;-77
2023/03/18 07:33:48;;;;;;;33.08;20.95;;;10.80;99.90;;;;;;5107490;28;20039;-76
2023/03/18 07:36:14;;;;;;;35.10;21.77;;;10.90;99.90;;;;;;5127182;27;20091;-76
2023/03/18 07:38:40;;;;;;;35.78;23.75;;;10.90;99.90;;;;;;5078365;27;20045;-76
2023/03/18 07:41:06;;;;;;;34.35;21.67;;;10.90;99.90;;;;;;5109249;27;20045;-76
2023/03/18 07:43:32;;;;;;;36.42;20.35;;;11.00;99.90;;;;;;5111969;27;20506;-79
2023/03/18 07:45:57;;;;;;;33.13;20.83;;;11.00;99.90;;;;;;5109470;27;20078;-78
2023/03/18 07:48:23;;;;;;;34.78;21.33;;;11.10;99.90;;;;;;5093993;27;20208;-78
2023/03/18 07:50:49;;;;;;;30.23;20.95;;;11.20;99.90;;;;;;5094022;27;20075;-78
2023/03/18 07:53:15;;;;;;;34.30;21.70;;;11.20;99.90;;;;;;5092897;27;20240;-79
2023/03/18 07:55:41;;;;;;;34.33;21.98;;;11.20;99.90;;;;;;5094383;27;20126;-80
2023/03/18 07:58:07;;;;;;;32.92;21.35;;;11.30;99.90;;;;;;5092023;27;20086;-83
2023/03/18 08:00:34;;;;;;;31.20;20.05;;;11.30;99.90;;;;;;5094834;27;20043;-81
2023/03/18 08:03:00;;;;;;;30.63;19.58;;;11.40;99.90;;;;;;5109292;27;20044;-80
2023/03/18 08:05:26;;;;;;;31.00;20.13;;;11.40;99.90;;;;;;5110713;27;20050;-80
2023/03/18 08:07:52;;;;;;;36.33;21.25;;;11.50;99.90;;;;;;5076739;27;20058;-79
2023/03/18 08:10:19;;;;;;;31.63;20.70;;;11.50;99.90;;;;;;5109790;27;20043;-78
2023/03/18 08:12:44;;;;;;;36.92;21.50;;;11.50;99.90;;;;;;5094538;27;20039;-79
2023/03/18 08:15:10;;;;;;;32.72;20.88;;;11.60;99.90;;;;;;5092022;27;20499;-79
2023/03/18 08:17:37;;;;;;;35.03;20.90;;;11.60;99.90;;;;;;5110922;27;20054;-78
2023/03/18 08:20:04;;;;;;;34.45;19.52;;;11.60;99.90;;;;;;5074648;27;20054;-77
2023/03/18 08:22:30;;;;;;;32.83;20.30;;;11.70;99.90;;;;;;5093621;27;20039;-78
2023/03/18 08:24:57;;;;;;;32.53;20.73;;;11.70;99.90;;;;;;5109605;27;20047;-78
2023/03/18 08:27:23;;;;;;;34.00;19.88;;;11.70;99.90;;;;;;5075968;27;20051;-78
2023/03/18 08:29:49;;;;;;;31.88;19.55;;;11.30;99.90;;;;;;5093826;27;20043;-78
2023/03/18 08:32:15;;;;;;;32.03;19.55;;;11.80;99.90;;;;;;5108611;27;20111;-77
2023/03/18 08:34:42;;;;;;;25.33;18.65;;;11.90;99.90;;;;;;5110824;27;20071;-78
2023/03/18 08:37:08;;;;;;;34.47;19.95;;;11.80;99.90;;;;;;5108368;27;20043;-78
2023/03/18 08:39:33;;;;;;;30.23;19.98;;;11.90;99.90;;;;;;5110805;27;20039;-78
2023/03/18 08:42:03;;;;;;;28.73;19.05;;;11.90;99.90;;;;;;5092411;27;20054;-80
2023/03/18 08:44:29;;;;;;;26.88;18.42;;;11.90;99.90;;;;;;5109038;27;20043;-79
2023/03/18 08:46:56;;;;;;;26.15;18.33;;;11.90;99.90;;;;;;5075672;27;20043;-78
2023/03/18 08:49:23;;;;;;;28.65;18.10;;;11.90;99.90;;;;;;5091376;27;20049;-78
2023/03/18 08:51:50;;;;;;;28.00;18.50;;;12.00;99.90;;;;;;5110695;27;20108;-78
2023/03/18 08:54:16;;;;;;;29.90;18.77;;;12.00;99.90;;;;;;5108166;27;20039;-77
2023/03/18 08:56:42;;;;;;;28.73;18.48;;;12.10;99.90;;;;;;5128648;27;20046;-78
2023/03/18 08:59:10;;;;;;;27.38;16.85;;;12.10;99.90;;;;;;5109159;27;20053;-78
2023/03/18 09:01:36;;;;;;;28.73;18.38;;;12.10;99.90;;;;;;5109036;27;20077;-78
2023/03/18 09:04:02;;;;;;;30.52;18.23;;;12.20;99.90;;;;;;5110217;27;20047;-77
2023/03/18 09:06:29;;;;;;;27.35;17.55;;;12.30;99.90;;;;;;5126784;27;20043;-78
2023/03/18 09:08:55;;;;;;;28.95;17.00;;;12.30;99.90;;;;;;5110247;27;20035;-77
2023/03/18 09:11:20;;;;;;;27.08;17.73;;;12.30;99.90;;;;;;5107742;27;20241;-78
2023/03/18 09:13:46;;;;;;;26.25;18.08;;;12.20;99.90;;;;;;5109372;27;20043;-78
2023/03/18 09:16:12;;;;;;;35.83;17.85;;;12.30;99.90;;;;;;5091449;27;20051;-77
2023/03/18 09:18:39;;;;;;;33.10;18.85;;;12.20;99.90;;;;;;5091547;27;20547;-77
2023/03/18 09:21:05;;;;;;;24.25;16.77;;;12.20;99.90;;;;;;5109583;27;20537;-76
2023/03/18 09:23:33;;;;;;;32.85;19.17;;;12.20;99.90;;;;;;5090281;27;20047;-77
2023/03/18 09:25:59;;;;;;;28.27;17.92;;;12.20;99.90;;;;;;5109697;27;20111;-77
2023/03/18 09:28:25;;;;;;;24.63;17.70;;;12.30;99.90;;;;;;5107639;27;20043;-77
2023/03/18 09:30:52;;;;;;;33.17;18.35;;;12.30;99.90;;;;;;5092266;27;20040;-77
2023/03/18 09:33:19;;;;;;;31.98;19.60;;;12.40;99.90;;;;;;5108178;27;20078;-78
2023/03/18 09:35:46;;;;;;;29.40;18.95;;;12.50;99.90;;;;;;5091902;27;20444;-78
2023/03/18 09:38:17;;;;;;;27.00;18.60;;;12.60;99.90;;;;;;5109811;27;20047;-78
2023/03/18 09:41:00;;;;;;;26.05;19.02;;;12.70;99.90;;;;;;5107186;27;20092;-78
2023/03/18 09:44:02;;;;;;;27.25;17.38;;;12.80;99.90;;;;;;5092973;27;20047;-79
2023/03/18 09:46:56;;;;;;;29.05;17.83;;;12.90;99.90;;;;;;5108699;27;20046;-79
2023/03/18 09:49:41;;;;;;;33.28;19.45;;;12.90;99.90;;;;;;5072048;27;20062;-79
2023/03/18 09:52:26;;;;;;;24.40;17.75;;;13.70;99.90;;;;;;5109154;27;20508;-78
2023/03/18 09:55:01;;;;;;;29.63;17.50;;;12.90;99.90;;;;;;5091564;27;20091;-78
2023/03/18 09:57:38;;;;;;;24.02;17.52;;;13.00;99.90;;;;;;5107824;27;20074;-78
2023/03/18 10:00:26;;;;;;;24.38;17.42;;;13.20;99.90;;;;;;5109331;27;20055;-78
2023/03/18 10:02:57;;;;;;;25.23;18.55;;;13.40;99.90;;;;;;5089736;27;20042;-79
2023/03/18 10:05:59;;;;;;;20.83;17.15;;;13.70;99.90;;;;;;5108127;27;20077;-78
2023/03/18 10:08:56;;;;;;;22.27;16.77;;;14.00;99.90;;;;;;5049649;27;20051;-79
2023/03/18 10:11:29;;;;;;;22.05;15.95;;;14.20;99.90;;;;;;5106406;27;20494;-79
2023/03/18 10:14:27;;;;;;;24.15;16.85;;;14.30;99.90;;;;;;5108499;27;20043;-80
2023/03/18 10:17:19;;;;;;;23.33;17.63;;;14.40;99.90;;;;;;5074664;27;20689;-80
2023/03/18 10:19:52;;;;;;;26.90;16.80;;;14.60;99.90;;;;;;5124404;27;20065;-79
2023/03/18 10:22:39;;;;;;;23.75;15.98;;;15.00;99.90;;;;;;5108258;27;20083;-79
2023/03/18 10:25:26;;;;;;;33.45;20.67;;;15.40;99.90;;;;;;5091414;27;20596;-80
2023/03/18 10:28:16;;;;;;;26.65;17.55;;;15.70;99.90;;;;;;5106202;27;20126;-81
2023/03/18 10:31:16;;;;;;;24.10;15.95;;;15.80;99.90;;;;;;5108662;27;20051;-81
2023/03/18 10:33:58;;;;;;;22.58;15.65;;;15.80;99.90;;;;;;5090876;27;20057;-81
2023/03/18 10:36:36;;;;;;;20.70;15.15;;;15.70;99.90;;;;;;5107054;27;20099;-81
2023/03/18 10:39:02;;;;;;;23.95;17.13;;;15.60;99.90;;;;;;5091255;27;20044;-78
2023/03/18 10:41:33;;;;;;;22.75;16.98;;;15.50;99.90;;;;;;5106763;27;20425;-78
2023/03/18 10:44:06;;;;;;;22.20;16.23;;;15.60;99.90;;;;;;5107746;27;20043;-78
2023/03/18 10:46:34;;;;;;;23.13;16.17;;;15.80;99.90;;;;;;5090912;27;20042;-78
2023/03/18 10:49:09;;;;;;;22.52;16.58;;;15.90;99.90;;;;;;5106510;27;20103;-78
2023/03/18 10:51:45;;;;;;;22.90;15.65;;;16.10;99.90;;;;;;5108281;27;20350;-78
2023/03/18 10:54:10;;;;;;;28.00;16.45;;;16.10;99.90;;;;;;5105985;27;20043;-78
2023/03/18 10:56:36;;;;;;;18.02;13.95;;;16.00;99.90;;;;;;5090783;27;20049;-78
2023/03/18 10:59:15;;;;;;;22.48;15.45;;;16.10;99.90;;;;;;5107321;27;20047;-79
2023/03/18 11:01:44;;;;;;;21.05;13.90;;;16.10;99.90;;;;;;5106480;27;20494;-79
2023/03/18 11:04:20;;;;;;;17.75;12.73;;;16.20;99.90;;;;;;5091472;27;20047;-79
2023/03/18 11:06:54;;;;;;;20.33;14.13;;;16.30;99.90;;;;;;5105404;28;20491;-79
2023/03/18 11:09:29;;;;;;;17.27;13.18;;;16.20;99.90;;;;;;5107740;27;20043;-78
2023/03/18 11:12:22;;;;;;;19.42;14.25;;;16.10;99.90;;;;;;5113188;27;20103;-78
2023/03/18 11:14:49;;;;;;;18.88;13.70;;;16.00;99.90;;;;;;5112261;27;20050;-79
2023/03/18 11:17:32;;;;;;;20.92;13.27;;;16.10;99.90;;;;;;5114861;27;20047;-78
2023/03/18 11:20:06;;;;;;;16.23;13.15;;;15.70;99.90;;;;;;5112844;27;20047;-78
2023/03/18 11:22:33;;;;;;;22.60;14.65;;;15.60;99.90;;;;;;5114380;27;20047;-79
2023/03/18 11:25:00;;;;;;;19.20;14.43;;;15.70;99.90;;;;;;5113717;27;20035;-78
2023/03/18 11:27:33;;;;;;;19.55;14.25;;;15.90;99.90;;;;;;5096166;27;20039;-78
2023/03/18 11:30:04;;;;;;;21.17;13.55;;;16.10;99.90;;;;;;5098099;27;20043;-79
2023/03/18 11:32:33;;;;;;;18.70;13.52;;;16.10;99.90;;;;;;5112190;27;20515;-79
2023/03/18 11:35:01;;;;;;;15.27;11.93;;;16.30;99.90;;;;;;5114615;27;20126;-79
2023/03/18 11:37:36;;;;;;;14.90;12.45;;;16.40;99.90;;;;;;5095788;27;20047;-79
2023/03/18 11:40:26;;;;;;;20.20;13.52;;;16.60;99.90;;;;;;5096635;27;20086;-81
2023/03/18 11:43:13;;;;;;;16.85;11.10;;;16.60;99.90;;;;;;5097631;27;20043;-78
2023/03/18 11:45:57;;;;;;;16.88;10.55;;;16.60;99.90;;;;;;5111963;27;20058;-78
2023/03/18 11:48:32;;;;;;;16.15;11.63;;;16.50;99.90;;;;;;5113431;27;20080;-80
2023/03/18 11:51:13;;;;;;;17.63;11.68;;;16.30;99.90;;;;;;5097510;27;20103;-79
2023/03/18 11:54:05;;;;;;;12.77;10.52;;;16.20;99.90;;;;;;5112030;27;20080;-78
2023/03/18 11:56:37;;;;;;;14.75;10.48;;;16.20;99.90;;;;;;5114008;27;20160;-79
2023/03/18 11:59:21;;;;;;;14.48;10.93;;;16.10;99.90;;;;;;5113098;27;20047;-79
2023/03/18 12:02:06;;;;;;;18.30;10.80;;;16.10;99.90;;;;;;5112121;27;20084;-79
2023/03/18 12:05:04;;;;;;;16.10;10.27;;;16.00;99.90;;;;;;5114370;27;20066;-80
2023/03/18 12:07:29;;;;;;;13.93;10.23;;;16.00;99.90;;;;;;5096373;27;20077;-80
2023/03/18 12:10:16;;;;;;;18.75;11.50;;;16.00;99.90;;;;;;5113289;27;20486;-78
2023/03/18 12:13:10;;;;;;;14.45;11.10;;;16.00;99.90;;;;;;5114384;27;20059;-78
2023/03/18 12:15:42;;;;;;;20.67;12.82;;;16.10;99.90;;;;;;5095139;27;20111;-78
2023/03/18 12:18:08;;;;;;;19.08;12.93;;;16.30;99.90;;;;;;5113652;27;20474;-78
2023/03/18 12:20:54;;;;;;;16.77;12.45;;;16.50;99.90;;;;;;5113345;27;20031;-78
2023/03/18 12:23:28;;;;;;;17.60;12.38;;;16.80;99.90;;;;;;5090877;27;20096;-83
2023/03/18 12:26:33;;;;;;;17.58;11.60;;;16.90;99.90;;;;;;5094803;27;20127;-79
2023/03/18 12:29:29;;;;;;;18.70;11.88;;;17.00;99.90;;;;;;5093576;27;20047;-81
2023/03/18 12:32:05;;;;;;;17.05;8.88;;;17.20;99.90;;;;;;5108822;27;20067;-80
2023/03/18 12:34:49;;;;;;;22.17;9.32;;;17.20;99.90;;;;;;5094486;27;20032;-81
2023/03/18 12:37:30;;;;;;;13.88;9.70;;;17.20;99.90;;;;;;5091800;27;20142;-82
2023/03/18 12:40:11;;;;;;;14.05;9.02;;;17.40;99.90;;;;;;5092853;27;20455;-81
2023/03/18 12:42:37;;;;;;;14.57;10.15;;;17.70;99.90;;;;;;5111007;27;20047;-80
2023/03/18 12:45:14;;;;;;;18.17;9.07;;;17.70;99.90;;;;;;5091454;27;20052;-81